Mafra, Brazil
Current Conditions -  °F | °C
As of 12:00 PM on Sunday 23 Nov 2014 (Local Time) from SBCT Reporting Station
Overcast Overcast  
Wind Chill: 68°   Ceiling: 900
Heat Index: 68°   Visibility: 6mi
Dew Point: 61°   Wind: 7mph
Humidity: 78%   Direction: 70°ENE
Pressure: 30.09"   Gusts: NA
Location:  26.11°S, 49.81°W
Report Text: SBCT 231400Z 07006KT 9999 BKN009 OVC013 20/16 Q1019
Loading
Personal Weather Stations






























Interactive Weather Map New forecast layout! Learn more

10-Day Weather Forecast

Advertisements
Track Severe Weather on mobile